sensor_id;sensor_type;location;lat;lon;timestamp;temperature;humidity
54558;DHT22;40452;50.080;20.040;2022-07-04T03:47:39;23.30;57.90
54558;DHT22;40452;50.080;20.040;2022-07-04T03:50:05;23.80;56.90
54558;DHT22;40452;50.080;20.040;2022-07-04T03:52:31;23.90;56.60
54558;DHT22;40452;50.080;20.040;2022-07-04T03:54:56;24.00;56.50
54558;DHT22;40452;50.080;20.040;2022-07-04T03:57:22;24.00;56.40
54558;DHT22;40452;50.080;20.040;2022-07-04T03:59:47;24.00;56.30
54558;DHT22;40452;50.080;20.040;2022-07-04T04:02:13;24.00;56.30
54558;DHT22;40452;50.080;20.040;2022-07-04T04:04:38;24.00;56.50
54558;DHT22;40452;50.080;20.040;2022-07-04T04:07:23;24.00;56.50
54558;DHT22;40452;50.080;20.040;2022-07-04T04:09:48;24.00;56.50
54558;DHT22;40452;50.080;20.040;2022-07-04T04:12:14;24.10;56.50
54558;DHT22;40452;50.080;20.040;2022-07-04T04:14:40;24.10;56.50
54558;DHT22;40452;50.080;20.040;2022-07-04T04:17:05;24.10;56.50
54558;DHT22;40452;50.080;20.040;2022-07-04T04:19:31;24.10;56.60
54558;DHT22;40452;50.080;20.040;2022-07-04T04:21:56;24.10;56.50
54558;DHT22;40452;50.080;20.040;2022-07-04T04:24:22;24.10;56.60
54558;DHT22;40452;50.080;20.040;2022-07-04T04:26:47;24.10;56.70
54558;DHT22;40452;50.080;20.040;2022-07-04T04:29:13;24.10;56.70
54558;DHT22;40452;50.080;20.040;2022-07-04T04:31:39;24.20;56.70
54558;DHT22;40452;50.080;20.040;2022-07-04T04:34:04;24.20;56.70
54558;DHT22;40452;50.080;20.040;2022-07-04T04:36:30;24.20;56.70
54558;DHT22;40452;50.080;20.040;2022-07-04T04:38:56;24.30;56.80
54558;DHT22;40452;50.080;20.040;2022-07-04T04:41:21;24.30;56.90
54558;DHT22;40452;50.080;20.040;2022-07-04T04:43:47;24.30;56.90
54558;DHT22;40452;50.080;20.040;2022-07-04T04:46:12;24.30;57.00
54558;DHT22;40452;50.080;20.040;2022-07-04T04:48:38;24.30;57.10
54558;DHT22;40452;50.080;20.040;2022-07-04T04:51:05;24.30;57.30
54558;DHT22;40452;50.080;20.040;2022-07-04T04:53:30;24.40;57.50
54558;DHT22;40452;50.080;20.040;2022-07-04T04:55:56;24.40;57.40
54558;DHT22;40452;50.080;20.040;2022-07-04T04:58:22;24.40;57.40
54558;DHT22;40452;50.080;20.040;2022-07-04T05:00:48;24.50;57.30
54558;DHT22;40452;50.080;20.040;2022-07-04T05:03:15;24.60;57.10
54558;DHT22;40452;50.080;20.040;2022-07-04T05:05:41;24.70;56.80
54558;DHT22;40452;50.080;20.040;2022-07-04T05:08:07;24.70;56.60
54558;DHT22;40452;50.080;20.040;2022-07-04T05:10:32;24.70;56.40
54558;DHT22;40452;50.080;20.040;2022-07-04T05:12:58;24.70;56.30
54558;DHT22;40452;50.080;20.040;2022-07-04T05:15:24;24.80;56.30
54558;DHT22;40452;50.080;20.040;2022-07-04T05:17:49;24.80;55.70
54558;DHT22;40452;50.080;20.040;2022-07-04T05:20:15;24.90;56.00
54558;DHT22;40452;50.080;20.040;2022-07-04T05:22:41;24.90;55.70
54558;DHT22;40452;50.080;20.040;2022-07-04T05:25:06;24.90;55.60
54558;DHT22;40452;50.080;20.040;2022-07-04T05:27:33;24.90;55.50
54558;DHT22;40452;50.080;20.040;2022-07-04T05:29:59;24.90;55.40
54558;DHT22;40452;50.080;20.040;2022-07-04T05:32:25;25.00;56.20
54558;DHT22;40452;50.080;20.040;2022-07-04T05:34:51;25.00;56.70
54558;DHT22;40452;50.080;20.040;2022-07-04T05:37:17;24.90;57.10
54558;DHT22;40452;50.080;20.040;2022-07-04T05:39:43;24.80;57.80
54558;DHT22;40452;50.080;20.040;2022-07-04T05:42:08;24.70;57.40
54558;DHT22;40452;50.080;20.040;2022-07-04T05:44:34;24.70;57.60
54558;DHT22;40452;50.080;20.040;2022-07-04T05:46:59;24.70;57.90
54558;DHT22;40452;50.080;20.040;2022-07-04T05:49:25;24.80;57.90
54558;DHT22;40452;50.080;20.040;2022-07-04T05:51:50;24.80;57.90
54558;DHT22;40452;50.080;20.040;2022-07-04T05:54:16;24.70;57.90
54558;DHT22;40452;50.080;20.040;2022-07-04T05:56:41;24.70;57.90
54558;DHT22;40452;50.080;20.040;2022-07-04T05:59:08;24.70;57.90
54558;DHT22;40452;50.080;20.040;2022-07-04T06:01:35;24.70;58.30
54558;DHT22;40452;50.080;20.040;2022-07-04T06:04:00;24.70;58.10
54558;DHT22;40452;50.080;20.040;2022-07-04T06:06:26;24.70;58.00
54558;DHT22;40452;50.080;20.040;2022-07-04T06:08:51;24.80;57.80
54558;DHT22;40452;50.080;20.040;2022-07-04T06:11:17;24.80;57.70
54558;DHT22;40452;50.080;20.040;2022-07-04T06:13:43;24.80;57.80
54558;DHT22;40452;50.080;20.040;2022-07-04T06:16:09;24.80;57.70
54558;DHT22;40452;50.080;20.040;2022-07-04T06:18:34;24.90;57.70
54558;DHT22;40452;50.080;20.040;2022-07-04T06:21:00;24.90;57.30
54558;DHT22;40452;50.080;20.040;2022-07-04T06:23:26;25.00;57.40
54558;DHT22;40452;50.080;20.040;2022-07-04T06:25:51;25.00;57.30
54558;DHT22;40452;50.080;20.040;2022-07-04T06:28:17;25.00;57.30
54558;DHT22;40452;50.080;20.040;2022-07-04T06:30:42;25.00;57.30
54558;DHT22;40452;50.080;20.040;2022-07-04T06:33:08;25.10;57.30
54558;DHT22;40452;50.080;20.040;2022-07-04T06:35:33;25.10;57.30
54558;DHT22;40452;50.080;20.040;2022-07-04T06:38:13;25.20;57.40
54558;DHT22;40452;50.080;20.040;2022-07-04T06:40:39;25.20;57.00
54558;DHT22;40452;50.080;20.040;2022-07-04T06:43:05;25.10;56.70
54558;DHT22;40452;50.080;20.040;2022-07-04T06:45:31;25.10;56.60
54558;DHT22;40452;50.080;20.040;2022-07-04T06:47:59;25.10;56.70
54558;DHT22;40452;50.080;20.040;2022-07-04T06:50:24;25.10;56.60
54558;DHT22;40452;50.080;20.040;2022-07-04T06:52:50;25.10;56.40
54558;DHT22;40452;50.080;20.040;2022-07-04T06:55:15;25.10;56.30
54558;DHT22;40452;50.080;20.040;2022-07-04T06:57:59;25.10;56.30
54558;DHT22;40452;50.080;20.040;2022-07-04T07:00:25;25.10;56.50
54558;DHT22;40452;50.080;20.040;2022-07-04T07:02:51;25.10;56.50
54558;DHT22;40452;50.080;20.040;2022-07-04T07:05:16;25.10;56.60
54558;DHT22;40452;50.080;20.040;2022-07-04T07:07:42;25.10;56.50
54558;DHT22;40452;50.080;20.040;2022-07-04T07:10:08;25.10;56.60
54558;DHT22;40452;50.080;20.040;2022-07-04T07:12:34;25.10;56.40
54558;DHT22;40452;50.080;20.040;2022-07-04T07:15:01;25.10;56.50
54558;DHT22;40452;50.080;20.040;2022-07-04T07:17:27;25.20;57.10
54558;DHT22;40452;50.080;20.040;2022-07-04T07:19:53;25.10;56.00
54558;DHT22;40452;50.080;20.040;2022-07-04T07:22:19;25.20;56.00
54558;DHT22;40452;50.080;20.040;2022-07-04T07:24:44;25.20;56.30
54558;DHT22;40452;50.080;20.040;2022-07-04T07:27:10;25.20;56.10
54558;DHT22;40452;50.080;20.040;2022-07-04T07:29:37;25.20;56.00
54558;DHT22;40452;50.080;20.040;2022-07-04T07:32:04;25.20;55.80
54558;DHT22;40452;50.080;20.040;2022-07-04T07:34:29;25.20;56.00
54558;DHT22;40452;50.080;20.040;2022-07-04T07:36:55;25.20;56.10
54558;DHT22;40452;50.080;20.040;2022-07-04T07:39:21;25.20;56.10
54558;DHT22;40452;50.080;20.040;2022-07-04T07:41:47;25.20;55.90
54558;DHT22;40452;50.080;20.040;2022-07-04T07:44:13;25.20;56.10
54558;DHT22;40452;50.080;20.040;2022-07-04T07:46:38;25.30;56.20
54558;DHT22;40452;50.080;20.040;2022-07-04T07:49:04;25.30;55.90
54558;DHT22;40452;50.080;20.040;2022-07-04T07:51:30;25.30;55.80
54558;DHT22;40452;50.080;20.040;2022-07-04T07:53:56;25.30;55.80
54558;DHT22;40452;50.080;20.040;2022-07-04T07:56:22;25.30;55.60
54558;DHT22;40452;50.080;20.040;2022-07-04T07:58:48;25.30;55.80
54558;DHT22;40452;50.080;20.040;2022-07-04T08:01:13;25.30;56.20
54558;DHT22;40452;50.080;20.040;2022-07-04T08:03:39;25.30;56.40
54558;DHT22;40452;50.080;20.040;2022-07-04T08:06:32;25.40;56.30
54558;DHT22;40452;50.080;20.040;2022-07-04T08:08:57;25.40;55.70
54558;DHT22;40452;50.080;20.040;2022-07-04T08:11:24;25.40;55.40
54558;DHT22;40452;50.080;20.040;2022-07-04T08:13:49;25.40;55.30
54558;DHT22;40452;50.080;20.040;2022-07-04T08:16:16;25.40;55.30
54558;DHT22;40452;50.080;20.040;2022-07-04T08:18:41;25.40;55.20
54558;DHT22;40452;50.080;20.040;2022-07-04T08:21:07;25.40;55.10
54558;DHT22;40452;50.080;20.040;2022-07-04T08:23:33;25.40;55.00
54558;DHT22;40452;50.080;20.040;2022-07-04T08:25:59;25.40;54.80
54558;DHT22;40452;50.080;20.040;2022-07-04T08:28:26;25.40;54.80
54558;DHT22;40452;50.080;20.040;2022-07-04T08:30:52;25.40;54.90
54558;DHT22;40452;50.080;20.040;2022-07-04T08:33:17;25.40;55.10
54558;DHT22;40452;50.080;20.040;2022-07-04T08:35:43;25.50;55.00
54558;DHT22;40452;50.080;20.040;2022-07-04T08:38:08;25.50;55.10
54558;DHT22;40452;50.080;20.040;2022-07-04T08:40:34;25.50;55.10
54558;DHT22;40452;50.080;20.040;2022-07-04T08:43:02;25.60;55.10
54558;DHT22;40452;50.080;20.040;2022-07-04T08:45:30;25.50;55.60
54558;DHT22;40452;50.080;20.040;2022-07-04T08:48:08;25.50;54.90
54558;DHT22;40452;50.080;20.040;2022-07-04T08:50:44;25.50;54.60
54558;DHT22;40452;50.080;20.040;2022-07-04T08:53:15;25.60;54.60
54558;DHT22;40452;50.080;20.040;2022-07-04T08:55:45;25.60;54.50
54558;DHT22;40452;50.080;20.040;2022-07-04T08:58:30;25.50;54.30
54558;DHT22;40452;50.080;20.040;2022-07-04T09:01:00;25.60;54.10
54558;DHT22;40452;50.080;20.040;2022-07-04T09:03:27;25.60;53.80
54558;DHT22;40452;50.080;20.040;2022-07-04T09:05:53;25.60;54.30
54558;DHT22;40452;50.080;20.040;2022-07-04T09:08:19;25.60;53.70
54558;DHT22;40452;50.080;20.040;2022-07-04T09:10:44;25.60;52.60
54558;DHT22;40452;50.080;20.040;2022-07-04T09:13:13;25.60;52.70
54558;DHT22;40452;50.080;20.040;2022-07-04T09:15:44;25.60;52.80
54558;DHT22;40452;50.080;20.040;2022-07-04T09:18:25;25.60;52.70
54558;DHT22;40452;50.080;20.040;2022-07-04T09:20:52;25.60;52.90
54558;DHT22;40452;50.080;20.040;2022-07-04T09:23:27;25.60;52.70
54558;DHT22;40452;50.080;20.040;2022-07-04T09:28:38;25.60;52.70
54558;DHT22;40452;50.080;20.040;2022-07-04T09:33:47;25.60;52.60
54558;DHT22;40452;50.080;20.040;2022-07-04T09:36:13;25.70;52.50
54558;DHT22;40452;50.080;20.040;2022-07-04T09:38:39;25.60;52.50
54558;DHT22;40452;50.080;20.040;2022-07-04T09:41:04;25.60;52.50
54558;DHT22;40452;50.080;20.040;2022-07-04T09:44:03;25.70;52.60
54558;DHT22;40452;50.080;20.040;2022-07-04T09:46:28;25.70;52.80
54558;DHT22;40452;50.080;20.040;2022-07-04T09:48:54;25.60;52.70
54558;DHT22;40452;50.080;20.040;2022-07-04T09:54:29;25.70;52.90
54558;DHT22;40452;50.080;20.040;2022-07-04T09:56:59;25.70;53.00
54558;DHT22;40452;50.080;20.040;2022-07-04T09:59:26;25.70;52.80
54558;DHT22;40452;50.080;20.040;2022-07-04T10:02:11;25.70;52.80
54558;DHT22;40452;50.080;20.040;2022-07-04T10:07:10;25.70;52.80
54558;DHT22;40452;50.080;20.040;2022-07-04T10:09:35;25.70;52.60
54558;DHT22;40452;50.080;20.040;2022-07-04T10:12:01;25.70;52.30
54558;DHT22;40452;50.080;20.040;2022-07-04T10:14:27;25.70;52.40
54558;DHT22;40452;50.080;20.040;2022-07-04T10:16:53;25.80;52.40
54558;DHT22;40452;50.080;20.040;2022-07-04T10:19:19;25.70;52.50
54558;DHT22;40452;50.080;20.040;2022-07-04T10:21:46;25.80;52.70
54558;DHT22;40452;50.080;20.040;2022-07-04T10:24:12;25.80;52.70
54558;DHT22;40452;50.080;20.040;2022-07-04T10:26:38;25.80;52.80
54558;DHT22;40452;50.080;20.040;2022-07-04T10:29:04;25.80;52.80
54558;DHT22;40452;50.080;20.040;2022-07-04T10:31:30;25.80;52.80
54558;DHT22;40452;50.080;20.040;2022-07-04T10:33:58;25.80;52.80
54558;DHT22;40452;50.080;20.040;2022-07-04T10:36:25;25.80;52.90
54558;DHT22;40452;50.080;20.040;2022-07-04T10:39:04;25.80;52.70
54558;DHT22;40452;50.080;20.040;2022-07-04T10:41:31;25.80;52.90
54558;DHT22;40452;50.080;20.040;2022-07-04T10:44:06;25.80;52.70
54558;DHT22;40452;50.080;20.040;2022-07-04T10:51:41;25.80;52.80
54558;DHT22;40452;50.080;20.040;2022-07-04T10:56:52;25.80;52.90
54558;DHT22;40452;50.080;20.040;2022-07-04T10:59:28;25.80;52.90
54558;DHT22;40452;50.080;20.040;2022-07-04T11:13:08;25.80;52.70
54558;DHT22;40452;50.080;20.040;2022-07-04T11:18:12;25.80;52.60
54558;DHT22;40452;50.080;20.040;2022-07-04T11:20:44;25.90;52.50
54558;DHT22;40452;50.080;20.040;2022-07-04T11:23:13;25.80;52.50
54558;DHT22;40452;50.080;20.040;2022-07-04T11:25:41;25.90;52.10
54558;DHT22;40452;50.080;20.040;2022-07-04T11:30:50;25.90;51.70
54558;DHT22;40452;50.080;20.040;2022-07-04T11:33:17;25.90;52.00
54558;DHT22;40452;50.080;20.040;2022-07-04T11:35:43;26.00;52.00
54558;DHT22;40452;50.080;20.040;2022-07-04T11:38:09;25.90;52.30
54558;DHT22;40452;50.080;20.040;2022-07-04T11:40:45;26.00;52.40
54558;DHT22;40452;50.080;20.040;2022-07-04T11:43:28;26.00;52.20
54558;DHT22;40452;50.080;20.040;2022-07-04T11:46:26;26.00;52.00
54558;DHT22;40452;50.080;20.040;2022-07-04T11:48:51;26.00;51.90
54558;DHT22;40452;50.080;20.040;2022-07-04T11:51:18;26.00;51.70
54558;DHT22;40452;50.080;20.040;2022-07-04T11:53:43;26.00;51.60
54558;DHT22;40452;50.080;20.040;2022-07-04T11:56:09;26.10;51.90
54558;DHT22;40452;50.080;20.040;2022-07-04T11:58:44;26.10;51.40
54558;DHT22;40452;50.080;20.040;2022-07-04T12:01:09;26.00;51.40
54558;DHT22;40452;50.080;20.040;2022-07-04T12:03:36;26.10;51.40
54558;DHT22;40452;50.080;20.040;2022-07-04T12:06:05;26.10;51.60
54558;DHT22;40452;50.080;20.040;2022-07-04T12:08:34;26.10;51.40
54558;DHT22;40452;50.080;20.040;2022-07-04T12:10:59;26.10;51.40
54558;DHT22;40452;50.080;20.040;2022-07-04T12:13:25;26.10;51.30
54558;DHT22;40452;50.080;20.040;2022-07-04T12:15:51;26.10;51.30
54558;DHT22;40452;50.080;20.040;2022-07-04T12:18:22;26.10;51.20
54558;DHT22;40452;50.080;20.040;2022-07-04T12:20:48;26.20;51.00
54558;DHT22;40452;50.080;20.040;2022-07-04T12:23:14;26.20;51.00
54558;DHT22;40452;50.080;20.040;2022-07-04T12:25:40;26.20;49.50
54558;DHT22;40452;50.080;20.040;2022-07-04T12:28:08;26.40;46.80
54558;DHT22;40452;50.080;20.040;2022-07-04T12:30:36;26.40;46.40
54558;DHT22;40452;50.080;20.040;2022-07-04T12:33:04;26.30;46.90
54558;DHT22;40452;50.080;20.040;2022-07-04T12:38:13;26.60;45.80
54558;DHT22;40452;50.080;20.040;2022-07-04T12:46:06;26.40;46.70
54558;DHT22;40452;50.080;20.040;2022-07-04T12:48:32;26.40;47.90
54558;DHT22;40452;50.080;20.040;2022-07-04T12:53:40;26.50;48.20
54558;DHT22;40452;50.080;20.040;2022-07-04T12:56:06;26.50;49.10
54558;DHT22;40452;50.080;20.040;2022-07-04T12:58:32;26.50;47.80
54558;DHT22;40452;50.080;20.040;2022-07-04T13:00:58;26.50;48.10
54558;DHT22;40452;50.080;20.040;2022-07-04T13:03:23;26.50;47.60
54558;DHT22;40452;50.080;20.040;2022-07-04T13:05:49;26.60;48.40
54558;DHT22;40452;50.080;20.040;2022-07-04T13:08:15;26.60;48.40
54558;DHT22;40452;50.080;20.040;2022-07-04T13:10:41;26.60;48.20
54558;DHT22;40452;50.080;20.040;2022-07-04T13:13:06;26.60;47.00
54558;DHT22;40452;50.080;20.040;2022-07-04T13:15:32;26.70;47.40
54558;DHT22;40452;50.080;20.040;2022-07-04T13:17:58;26.70;48.00
54558;DHT22;40452;50.080;20.040;2022-07-04T13:20:24;26.60;48.00
54558;DHT22;40452;50.080;20.040;2022-07-04T13:22:50;26.70;48.20
54558;DHT22;40452;50.080;20.040;2022-07-04T13:25:16;26.70;48.40
54558;DHT22;40452;50.080;20.040;2022-07-04T13:27:42;26.70;48.30
54558;DHT22;40452;50.080;20.040;2022-07-04T13:30:08;26.80;48.30
54558;DHT22;40452;50.080;20.040;2022-07-04T13:32:37;26.80;48.30
54558;DHT22;40452;50.080;20.040;2022-07-04T13:35:04;26.80;48.40
54558;DHT22;40452;50.080;20.040;2022-07-04T13:37:29;26.80;48.20
54558;DHT22;40452;50.080;20.040;2022-07-04T13:39:55;26.80;48.30
54558;DHT22;40452;50.080;20.040;2022-07-04T13:42:21;26.80;48.00
54558;DHT22;40452;50.080;20.040;2022-07-04T13:45:06;26.90;48.20
54558;DHT22;40452;50.080;20.040;2022-07-04T13:47:32;26.90;48.40
54558;DHT22;40452;50.080;20.040;2022-07-04T13:49:57;26.90;48.30
54558;DHT22;40452;50.080;20.040;2022-07-04T13:52:23;26.90;48.20
54558;DHT22;40452;50.080;20.040;2022-07-04T13:54:48;26.90;48.20
54558;DHT22;40452;50.080;20.040;2022-07-04T13:57:14;26.90;48.10
54558;DHT22;40452;50.080;20.040;2022-07-04T13:59:39;26.80;48.70
54558;DHT22;40452;50.080;20.040;2022-07-04T14:02:06;26.90;47.90
54558;DHT22;40452;50.080;20.040;2022-07-04T14:04:31;26.80;47.80
54558;DHT22;40452;50.080;20.040;2022-07-04T14:06:57;26.80;48.00
54558;DHT22;40452;50.080;20.040;2022-07-04T14:09:23;26.80;48.60
54558;DHT22;40452;50.080;20.040;2022-07-04T14:11:48;26.80;48.40
54558;DHT22;40452;50.080;20.040;2022-07-04T14:14:14;26.80;48.70
54558;DHT22;40452;50.080;20.040;2022-07-04T14:16:39;26.80;48.70
54558;DHT22;40452;50.080;20.040;2022-07-04T14:19:05;26.80;48.70
54558;DHT22;40452;50.080;20.040;2022-07-04T14:21:31;26.80;47.80
54558;DHT22;40452;50.080;20.040;2022-07-04T14:23:56;26.80;46.90
54558;DHT22;40452;50.080;20.040;2022-07-04T14:26:22;26.80;48.60
54558;DHT22;40452;50.080;20.040;2022-07-04T14:28:50;26.80;48.50
54558;DHT22;40452;50.080;20.040;2022-07-04T14:31:16;26.80;48.00
54558;DHT22;40452;50.080;20.040;2022-07-04T14:33:41;26.80;48.90
54558;DHT22;40452;50.080;20.040;2022-07-04T14:36:07;26.80;48.90
54558;DHT22;40452;50.080;20.040;2022-07-04T14:38:34;26.80;49.20
54558;DHT22;40452;50.080;20.040;2022-07-04T14:40:59;26.80;49.40
54558;DHT22;40452;50.080;20.040;2022-07-04T14:43:43;26.80;49.30
54558;DHT22;40452;50.080;20.040;2022-07-04T14:46:09;26.80;49.40
54558;DHT22;40452;50.080;20.040;2022-07-04T14:48:36;26.80;48.90
54558;DHT22;40452;50.080;20.040;2022-07-04T14:51:02;26.80;48.80
54558;DHT22;40452;50.080;20.040;2022-07-04T14:53:28;26.80;49.10
54558;DHT22;40452;50.080;20.040;2022-07-04T14:55:53;26.80;49.20
54558;DHT22;40452;50.080;20.040;2022-07-04T14:58:19;26.70;49.40
54558;DHT22;40452;50.080;20.040;2022-07-04T15:00:45;26.80;49.30
54558;DHT22;40452;50.080;20.040;2022-07-04T15:03:10;26.70;49.40
54558;DHT22;40452;50.080;20.040;2022-07-04T15:05:36;26.70;49.20
54558;DHT22;40452;50.080;20.040;2022-07-04T15:08:01;26.70;49.50
54558;DHT22;40452;50.080;20.040;2022-07-04T15:10:27;26.70;49.60
54558;DHT22;40452;50.080;20.040;2022-07-04T15:12:53;26.70;49.40
54558;DHT22;40452;50.080;20.040;2022-07-04T15:15:18;26.70;49.20
54558;DHT22;40452;50.080;20.040;2022-07-04T15:17:46;26.70;48.40
54558;DHT22;40452;50.080;20.040;2022-07-04T15:20:12;26.80;47.20
54558;DHT22;40452;50.080;20.040;2022-07-04T15:22:56;26.80;45.80
54558;DHT22;40452;50.080;20.040;2022-07-04T15:25:40;26.80;46.80
54558;DHT22;40452;50.080;20.040;2022-07-04T15:28:06;26.80;47.50
54558;DHT22;40452;50.080;20.040;2022-07-04T15:30:31;26.80;47.80
54558;DHT22;40452;50.080;20.040;2022-07-04T15:32:57;26.80;47.80
54558;DHT22;40452;50.080;20.040;2022-07-04T15:35:23;26.90;47.90
54558;DHT22;40452;50.080;20.040;2022-07-04T15:37:48;26.90;47.50
54558;DHT22;40452;50.080;20.040;2022-07-04T15:40:14;26.90;48.10
54558;DHT22;40452;50.080;20.040;2022-07-04T15:42:39;26.90;48.00
54558;DHT22;40452;50.080;20.040;2022-07-04T15:45:05;26.90;48.90
54558;DHT22;40452;50.080;20.040;2022-07-04T15:47:31;26.90;48.80
54558;DHT22;40452;50.080;20.040;2022-07-04T15:49:56;26.90;48.90
54558;DHT22;40452;50.080;20.040;2022-07-04T15:52:22;26.90;48.90
54558;DHT22;40452;50.080;20.040;2022-07-04T15:54:48;26.90;49.00
54558;DHT22;40452;50.080;20.040;2022-07-04T15:57:14;26.90;49.00
54558;DHT22;40452;50.080;20.040;2022-07-04T15:59:40;26.90;49.10
54558;DHT22;40452;50.080;20.040;2022-07-04T16:02:06;26.90;48.70
54558;DHT22;40452;50.080;20.040;2022-07-04T16:04:32;26.90;48.90
54558;DHT22;40452;50.080;20.040;2022-07-04T16:06:58;26.90;48.70
54558;DHT22;40452;50.080;20.040;2022-07-04T16:09:23;26.90;48.40
54558;DHT22;40452;50.080;20.040;2022-07-04T16:11:49;27.00;47.70
54558;DHT22;40452;50.080;20.040;2022-07-04T16:14:19;27.00;47.50
54558;DHT22;40452;50.080;20.040;2022-07-04T16:16:44;27.00;47.60
54558;DHT22;40452;50.080;20.040;2022-07-04T16:19:10;27.00;47.10
54558;DHT22;40452;50.080;20.040;2022-07-04T16:21:35;27.00;47.40
54558;DHT22;40452;50.080;20.040;2022-07-04T16:24:01;27.00;47.20
54558;DHT22;40452;50.080;20.040;2022-07-04T16:26:27;27.00;47.90
54558;DHT22;40452;50.080;20.040;2022-07-04T16:28:52;27.00;47.60
54558;DHT22;40452;50.080;20.040;2022-07-04T16:31:18;27.00;47.40
54558;DHT22;40452;50.080;20.040;2022-07-04T16:33:48;27.00;47.10
54558;DHT22;40452;50.080;20.040;2022-07-04T16:36:13;27.00;47.30
54558;DHT22;40452;50.080;20.040;2022-07-04T16:38:39;27.00;47.50
54558;DHT22;40452;50.080;20.040;2022-07-04T16:41:05;27.00;46.90
54558;DHT22;40452;50.080;20.040;2022-07-04T16:43:31;27.00;45.30
54558;DHT22;40452;50.080;20.040;2022-07-04T16:45:57;27.00;45.40
54558;DHT22;40452;50.080;20.040;2022-07-04T16:48:23;27.00;45.80
54558;DHT22;40452;50.080;20.040;2022-07-04T16:50:49;27.00;45.90
54558;DHT22;40452;50.080;20.040;2022-07-04T16:53:15;27.00;46.30
54558;DHT22;40452;50.080;20.040;2022-07-04T16:55:41;27.00;46.40
54558;DHT22;40452;50.080;20.040;2022-07-04T16:58:07;26.90;46.10
54558;DHT22;40452;50.080;20.040;2022-07-04T17:00:32;27.00;46.40
54558;DHT22;40452;50.080;20.040;2022-07-04T17:02:58;26.90;46.80
54558;DHT22;40452;50.080;20.040;2022-07-04T17:05:23;27.00;46.90
54558;DHT22;40452;50.080;20.040;2022-07-04T17:07:49;26.90;46.30
54558;DHT22;40452;50.080;20.040;2022-07-04T17:10:15;26.90;46.50
54558;DHT22;40452;50.080;20.040;2022-07-04T17:12:40;26.90;46.00
54558;DHT22;40452;50.080;20.040;2022-07-04T17:15:06;27.00;45.20
54558;DHT22;40452;50.080;20.040;2022-07-04T17:17:32;27.00;44.70
54558;DHT22;40452;50.080;20.040;2022-07-04T17:19:58;27.00;45.00
54558;DHT22;40452;50.080;20.040;2022-07-04T17:22:24;27.00;46.10
54558;DHT22;40452;50.080;20.040;2022-07-04T17:24:50;27.00;45.80
54558;DHT22;40452;50.080;20.040;2022-07-04T17:27:16;26.90;45.70
54558;DHT22;40452;50.080;20.040;2022-07-04T17:29:42;26.90;45.90
54558;DHT22;40452;50.080;20.040;2022-07-04T17:32:07;26.90;46.40
54558;DHT22;40452;50.080;20.040;2022-07-04T17:34:34;27.00;46.70
54558;DHT22;40452;50.080;20.040;2022-07-04T17:36:59;26.90;47.00
54558;DHT22;40452;50.080;20.040;2022-07-04T17:39:25;26.90;46.80
54558;DHT22;40452;50.080;20.040;2022-07-04T17:41:51;27.00;46.50
54558;DHT22;40452;50.080;20.040;2022-07-04T17:44:17;26.90;46.90
54558;DHT22;40452;50.080;20.040;2022-07-04T17:46:44;26.90;47.10
54558;DHT22;40452;50.080;20.040;2022-07-04T17:49:14;26.90;47.30
54558;DHT22;40452;50.080;20.040;2022-07-04T17:51:41;26.90;48.00
54558;DHT22;40452;50.080;20.040;2022-07-04T17:54:09;26.90;47.90
54558;DHT22;40452;50.080;20.040;2022-07-04T17:56:36;26.90;48.20
54558;DHT22;40452;50.080;20.040;2022-07-04T17:59:02;26.90;48.10
54558;DHT22;40452;50.080;20.040;2022-07-04T18:01:28;26.90;47.90
54558;DHT22;40452;50.080;20.040;2022-07-04T18:03:54;26.90;47.90
54558;DHT22;40452;50.080;20.040;2022-07-04T18:06:20;26.90;48.50
54558;DHT22;40452;50.080;20.040;2022-07-04T18:08:46;26.90;48.60
54558;DHT22;40452;50.080;20.040;2022-07-04T18:11:12;26.90;48.80
54558;DHT22;40452;50.080;20.040;2022-07-04T18:13:37;26.90;48.90
54558;DHT22;40452;50.080;20.040;2022-07-04T18:16:03;26.90;49.00
54558;DHT22;40452;50.080;20.040;2022-07-04T18:18:30;26.90;48.90
54558;DHT22;40452;50.080;20.040;2022-07-04T18:20:55;26.90;49.70
54558;DHT22;40452;50.080;20.040;2022-07-04T18:23:21;26.90;48.80
54558;DHT22;40452;50.080;20.040;2022-07-04T18:25:47;26.90;48.90
54558;DHT22;40452;50.080;20.040;2022-07-04T18:28:12;26.90;48.80
54558;DHT22;40452;50.080;20.040;2022-07-04T18:30:42;26.90;48.90
54558;DHT22;40452;50.080;20.040;2022-07-04T18:33:11;26.90;48.80
54558;DHT22;40452;50.080;20.040;2022-07-04T18:35:37;26.90;48.90
54558;DHT22;40452;50.080;20.040;2022-07-04T18:38:03;26.90;48.90
54558;DHT22;40452;50.080;20.040;2022-07-04T18:40:29;26.90;49.10
54558;DHT22;40452;50.080;20.040;2022-07-04T18:43:13;26.90;49.10
54558;DHT22;40452;50.080;20.040;2022-07-04T18:45:58;26.90;49.30
54558;DHT22;40452;50.080;20.040;2022-07-04T18:48:25;26.90;49.40
54558;DHT22;40452;50.080;20.040;2022-07-04T18:50:52;26.90;49.40
54558;DHT22;40452;50.080;20.040;2022-07-04T18:53:19;26.80;49.80
54558;DHT22;40452;50.080;20.040;2022-07-04T18:55:44;26.90;50.70
54558;DHT22;40452;50.080;20.040;2022-07-04T18:58:10;26.90;50.30
54558;DHT22;40452;50.080;20.040;2022-07-04T19:00:36;26.90;50.30
54558;DHT22;40452;50.080;20.040;2022-07-04T19:03:03;26.90;50.20
54558;DHT22;40452;50.080;20.040;2022-07-04T19:05:29;26.80;50.20
54558;DHT22;40452;50.080;20.040;2022-07-04T19:07:56;26.90;50.30
54558;DHT22;40452;50.080;20.040;2022-07-04T19:10:21;26.80;50.40
54558;DHT22;40452;50.080;20.040;2022-07-04T19:12:47;26.90;50.60
54558;DHT22;40452;50.080;20.040;2022-07-04T19:15:13;26.80;50.60
54558;DHT22;40452;50.080;20.040;2022-07-04T19:17:39;26.80;50.50
54558;DHT22;40452;50.080;20.040;2022-07-04T19:20:06;26.80;50.50
54558;DHT22;40452;50.080;20.040;2022-07-04T19:22:32;26.80;50.90
54558;DHT22;40452;50.080;20.040;2022-07-04T19:25:00;26.80;50.90
54558;DHT22;40452;50.080;20.040;2022-07-04T19:27:25;26.80;51.70
54558;DHT22;40452;50.080;20.040;2022-07-04T19:29:51;26.80;51.20
54558;DHT22;40452;50.080;20.040;2022-07-04T19:32:17;26.80;51.30
54558;DHT22;40452;50.080;20.040;2022-07-04T19:34:42;26.80;51.30
54558;DHT22;40452;50.080;20.040;2022-07-04T19:37:08;26.80;51.30
54558;DHT22;40452;50.080;20.040;2022-07-04T19:39:33;26.80;51.30
54558;DHT22;40452;50.080;20.040;2022-07-04T19:41:59;26.80;51.30
54558;DHT22;40452;50.080;20.040;2022-07-04T19:44:25;26.80;51.10
54558;DHT22;40452;50.080;20.040;2022-07-04T19:46:50;26.80;51.10